หน้าหลัก
METAR-TAF:

METAR-TAF

ท่าอากาศยาน :

Karup, เดนมาร์ก

ละติจูด: 56-18N, ลองจิจูด: 009-07E, ความสูง: 52 ม.

การสังเกตสภาพอากาศปัจจุบัน

รายงานได้ทำขึ้นเมื่อ 30 นาทีที่แล้ว ณ เวลา 11:20 UTC
ลม 11 นอตจากตะวันตก/ตะวันตกเฉียงใต้
อุณหภูมิ 19°C
ความชื้น 60%
ความกดอากาศ 1022 hPa
ทัศนวิสัย 10 กม. หรือมากกว่า

METAR: EKKA 181120Z AUTO 25011KT 9999 BKN028/// 19/11 Q1022 NOSIG

เวลา: 13:50 (11:50 UTC)

การพยากรณ์

รายงานได้ทำขึ้นเมื่อ 42 นาทีที่แล้ว ณ เวลา 11:08 UTC
การพยากรณ์มีผลตั้งแต่วันที่ 18 ณ เวลา 12 UTC จนถึงวันที่ 19 ณ เวลา 12 UTC
ลม 7 นอตจากตะวันตก/ตะวันตกเฉียงใต้
ทัศนวิสัย 10 กม. หรือมากกว่า
มีเมฆกระจายเป็นบางส่วนที่ความสูง 2500 ฟุต
ชั่วคราว
ตั้งแต่วันที่ 18 ณ เวลา 23 UTC จนถึงวันที่ 19 ณ เวลา 03 UTC
ทัศนวิสัย: 2500 ม.
หย่อมหมอก, หมอกตื้น
ชั่วคราว
ตั้งแต่วันที่ 19 ณ เวลา 03 UTC จนถึงวันที่ 19 ณ เวลา 06 UTC
ทัศนวิสัย: 0800 ม.
มีเมฆเป็นส่วนมากเว้นเป็นระยะที่ความสูง 100 ฟุต
หมอก,

TAF: EKKA 181108Z 1812/1912 24007KT 9999 SCT025 TEMPO 1823/1903 2500 BCFG MIFG TEMPO 1903/1906 0800 FG BKN001

สังเกตการณ์สภาพอากาศและพยากรณ์อากาศของสนามบินมากกว่า 4000 แห่ง (รายงาน METAR และ TAF).

สถานีที่ดูได้จะแสดงไว้ด้วยจุดสีเหลืองและสีแดงบนแผนที่.

เลื่อนเมาส์ไปเหนือจุดเพื่อดูชื่อสถานี.

แล้วคลิกเพื่อดูสังเกตการณ์และการพยากรณ์สภาพอากาศ.

ในการเปลี่ยนแผนที่: คลิกที่ปุ่มสีเขียวที่มีกากบาทสีดำเพื่อซูมเข้า; ที่ปุ่มสีเขียวที่มีขีดเพื่อซูมออก; หรือที่ลูกศรสีเขียวเพื่อไปยังแผนที่ที่อยู่ติดกัน.


METAR-TAF: